sensor_id;sensor_type;location;lat;lon;timestamp;P1;durP1;ratioP1;P2;durP2;ratioP2
42802;SDS011;28447;48.682;9.022;2022-08-01T00:00:38;8.20;;;4.70;;
42802;SDS011;28447;48.682;9.022;2022-08-01T00:03:04;4.70;;;3.80;;
42802;SDS011;28447;48.682;9.022;2022-08-01T00:05:30;8.20;;;4.40;;
42802;SDS011;28447;48.682;9.022;2022-08-01T00:07:56;6.50;;;3.97;;
42802;SDS011;28447;48.682;9.022;2022-08-01T00:10:22;5.60;;;3.87;;
42802;SDS011;28447;48.682;9.022;2022-08-01T00:12:48;5.40;;;3.77;;
42802;SDS011;28447;48.682;9.022;2022-08-01T00:15:14;4.97;;;4.07;;
42802;SDS011;28447;48.682;9.022;2022-08-01T00:17:41;5.90;;;3.77;;
42802;SDS011;28447;48.682;9.022;2022-08-01T00:20:08;6.27;;;4.10;;
42802;SDS011;28447;48.682;9.022;2022-08-01T00:22:36;5.17;;;3.50;;
42802;SDS011;28447;48.682;9.022;2022-08-01T00:25:02;5.83;;;3.70;;
42802;SDS011;28447;48.682;9.022;2022-08-01T00:27:29;8.73;;;4.23;;
42802;SDS011;28447;48.682;9.022;2022-08-01T00:29:55;6.87;;;4.00;;
42802;SDS011;28447;48.682;9.022;2022-08-01T00:32:21;4.40;;;4.00;;
42802;SDS011;28447;48.682;9.022;2022-08-01T00:34:46;5.83;;;3.97;;
42802;SDS011;28447;48.682;9.022;2022-08-01T00:37:12;6.17;;;4.00;;
42802;SDS011;28447;48.682;9.022;2022-08-01T00:39:37;6.00;;;3.70;;
42802;SDS011;28447;48.682;9.022;2022-08-01T00:42:09;5.23;;;4.00;;
42802;SDS011;28447;48.682;9.022;2022-08-01T00:44:36;7.33;;;3.87;;
42802;SDS011;28447;48.682;9.022;2022-08-01T00:47:02;6.97;;;4.57;;
42802;SDS011;28447;48.682;9.022;2022-08-01T00:49:29;7.03;;;4.60;;
42802;SDS011;28447;48.682;9.022;2022-08-01T00:51:54;5.77;;;5.00;;
42802;SDS011;28447;48.682;9.022;2022-08-01T00:54:21;4.70;;;3.37;;
42802;SDS011;28447;48.682;9.022;2022-08-01T00:56:48;5.00;;;4.50;;
42802;SDS011;28447;48.682;9.022;2022-08-01T00:59:14;9.77;;;3.97;;
42802;SDS011;28447;48.682;9.022;2022-08-01T01:01:42;5.90;;;4.37;;
42802;SDS011;28447;48.682;9.022;2022-08-01T01:04:08;7.70;;;4.70;;
42802;SDS011;28447;48.682;9.022;2022-08-01T01:14:37;5.63;;;4.80;;
42802;SDS011;28447;48.682;9.022;2022-08-01T01:17:11;4.37;;;3.97;;
42802;SDS011;28447;48.682;9.022;2022-08-01T01:19:46;5.23;;;4.00;;
42802;SDS011;28447;48.682;9.022;2022-08-01T01:25:00;5.53;;;3.63;;
42802;SDS011;28447;48.682;9.022;2022-08-01T01:27:53;5.33;;;4.60;;
42802;SDS011;28447;48.682;9.022;2022-08-01T01:30:28;4.47;;;3.77;;
42802;SDS011;28447;48.682;9.022;2022-08-01T01:32:56;5.10;;;4.40;;
42802;SDS011;28447;48.682;9.022;2022-08-01T01:35:27;6.27;;;4.73;;
42802;SDS011;28447;48.682;9.022;2022-08-01T01:38:10;5.40;;;4.00;;
42802;SDS011;28447;48.682;9.022;2022-08-01T01:40:42;6.07;;;4.70;;
42802;SDS011;28447;48.682;9.022;2022-08-01T01:43:10;5.47;;;4.50;;
42802;SDS011;28447;48.682;9.022;2022-08-01T01:45:37;8.30;;;4.67;;
42802;SDS011;28447;48.682;9.022;2022-08-01T01:48:03;5.63;;;4.67;;
42802;SDS011;28447;48.682;9.022;2022-08-01T01:50:31;5.60;;;4.37;;
42802;SDS011;28447;48.682;9.022;2022-08-01T01:52:58;5.80;;;4.10;;
42802;SDS011;28447;48.682;9.022;2022-08-01T01:55:26;5.23;;;4.43;;
42802;SDS011;28447;48.682;9.022;2022-08-01T01:57:53;8.50;;;4.63;;
42802;SDS011;28447;48.682;9.022;2022-08-01T02:00:21;4.80;;;4.10;;
42802;SDS011;28447;48.682;9.022;2022-08-01T02:02:48;6.40;;;4.40;;
42802;SDS011;28447;48.682;9.022;2022-08-01T02:05:16;7.70;;;4.50;;
42802;SDS011;28447;48.682;9.022;2022-08-01T02:07:42;7.17;;;4.80;;
42802;SDS011;28447;48.682;9.022;2022-08-01T02:10:09;6.07;;;4.47;;
42802;SDS011;28447;48.682;9.022;2022-08-01T02:12:37;6.37;;;4.73;;
42802;SDS011;28447;48.682;9.022;2022-08-01T02:15:06;6.00;;;4.37;;
42802;SDS011;28447;48.682;9.022;2022-08-01T02:17:34;5.67;;;4.50;;
42802;SDS011;28447;48.682;9.022;2022-08-01T02:20:06;5.47;;;4.50;;
42802;SDS011;28447;48.682;9.022;2022-08-01T02:22:33;16.63;;;4.57;;
42802;SDS011;28447;48.682;9.022;2022-08-01T02:25:06;4.93;;;4.43;;
42802;SDS011;28447;48.682;9.022;2022-08-01T02:27:49;6.30;;;4.83;;
42802;SDS011;28447;48.682;9.022;2022-08-01T02:30:36;4.50;;;3.80;;
42802;SDS011;28447;48.682;9.022;2022-08-01T02:33:17;6.10;;;4.70;;
42802;SDS011;28447;48.682;9.022;2022-08-01T02:35:46;7.57;;;4.67;;
42802;SDS011;28447;48.682;9.022;2022-08-01T02:38:15;5.63;;;4.30;;
42802;SDS011;28447;48.682;9.022;2022-08-01T02:40:43;6.00;;;4.50;;
42802;SDS011;28447;48.682;9.022;2022-08-01T02:43:12;6.83;;;5.20;;
42802;SDS011;28447;48.682;9.022;2022-08-01T02:45:43;8.10;;;4.77;;
42802;SDS011;28447;48.682;9.022;2022-08-01T02:48:13;7.40;;;4.83;;
42802;SDS011;28447;48.682;9.022;2022-08-01T02:50:42;8.70;;;4.90;;
42802;SDS011;28447;48.682;9.022;2022-08-01T02:53:12;6.50;;;5.27;;
42802;SDS011;28447;48.682;9.022;2022-08-01T02:55:39;5.73;;;4.73;;
42802;SDS011;28447;48.682;9.022;2022-08-01T02:58:07;5.83;;;4.70;;
42802;SDS011;28447;48.682;9.022;2022-08-01T03:00:35;8.13;;;4.73;;
42802;SDS011;28447;48.682;9.022;2022-08-01T03:03:01;10.53;;;4.30;;
42802;SDS011;28447;48.682;9.022;2022-08-01T03:05:28;4.73;;;4.20;;
42802;SDS011;28447;48.682;9.022;2022-08-01T03:07:57;5.97;;;4.60;;
42802;SDS011;28447;48.682;9.022;2022-08-01T03:10:25;4.90;;;4.40;;
42802;SDS011;28447;48.682;9.022;2022-08-01T03:12:53;5.67;;;4.20;;
42802;SDS011;28447;48.682;9.022;2022-08-01T03:15:21;7.03;;;4.20;;
42802;SDS011;28447;48.682;9.022;2022-08-01T03:17:49;7.50;;;4.30;;
42802;SDS011;28447;48.682;9.022;2022-08-01T03:20:18;5.50;;;4.70;;
42802;SDS011;28447;48.682;9.022;2022-08-01T03:22:45;5.43;;;4.13;;
42802;SDS011;28447;48.682;9.022;2022-08-01T03:25:16;8.67;;;4.10;;
42802;SDS011;28447;48.682;9.022;2022-08-01T03:27:45;5.83;;;4.03;;
42802;SDS011;28447;48.682;9.022;2022-08-01T03:30:16;6.00;;;4.13;;
42802;SDS011;28447;48.682;9.022;2022-08-01T03:32:42;6.50;;;4.40;;
42802;SDS011;28447;48.682;9.022;2022-08-01T03:35:08;17.20;;;5.20;;
42802;SDS011;28447;48.682;9.022;2022-08-01T03:37:36;5.97;;;4.47;;
42802;SDS011;28447;48.682;9.022;2022-08-01T03:40:26;4.87;;;4.10;;
42802;SDS011;28447;48.682;9.022;2022-08-01T03:42:59;6.43;;;4.70;;
42802;SDS011;28447;48.682;9.022;2022-08-01T03:45:37;6.17;;;4.27;;
42802;SDS011;28447;48.682;9.022;2022-08-01T03:48:06;4.33;;;3.93;;
42802;SDS011;28447;48.682;9.022;2022-08-01T03:50:39;5.47;;;4.27;;
42802;SDS011;28447;48.682;9.022;2022-08-01T03:53:07;11.10;;;4.67;;
42802;SDS011;28447;48.682;9.022;2022-08-01T03:55:35;5.23;;;4.30;;
42802;SDS011;28447;48.682;9.022;2022-08-01T03:58:03;5.53;;;4.30;;
42802;SDS011;28447;48.682;9.022;2022-08-01T04:00:29;9.87;;;5.20;;
42802;SDS011;28447;48.682;9.022;2022-08-01T04:02:55;5.33;;;4.30;;
42802;SDS011;28447;48.682;9.022;2022-08-01T04:05:21;6.40;;;4.30;;
42802;SDS011;28447;48.682;9.022;2022-08-01T04:07:48;8.53;;;5.20;;
42802;SDS011;28447;48.682;9.022;2022-08-01T04:10:26;5.77;;;4.87;;
42802;SDS011;28447;48.682;9.022;2022-08-01T04:12:52;9.37;;;5.00;;
42802;SDS011;28447;48.682;9.022;2022-08-01T04:15:18;5.70;;;4.90;;
42802;SDS011;28447;48.682;9.022;2022-08-01T04:17:45;7.50;;;5.00;;
42802;SDS011;28447;48.682;9.022;2022-08-01T04:20:11;10.97;;;5.40;;
42802;SDS011;28447;48.682;9.022;2022-08-01T04:22:37;6.00;;;4.90;;
42802;SDS011;28447;48.682;9.022;2022-08-01T04:25:05;9.83;;;5.60;;
42802;SDS011;28447;48.682;9.022;2022-08-01T04:27:36;14.37;;;4.70;;
42802;SDS011;28447;48.682;9.022;2022-08-01T04:30:04;5.30;;;4.57;;
42802;SDS011;28447;48.682;9.022;2022-08-01T04:32:33;7.50;;;5.53;;
42802;SDS011;28447;48.682;9.022;2022-08-01T04:35:00;6.63;;;5.10;;
42802;SDS011;28447;48.682;9.022;2022-08-01T04:37:29;10.57;;;5.10;;
42802;SDS011;28447;48.682;9.022;2022-08-01T04:39:56;8.80;;;5.13;;
42802;SDS011;28447;48.682;9.022;2022-08-01T04:42:23;7.87;;;5.17;;
42802;SDS011;28447;48.682;9.022;2022-08-01T04:44:49;6.50;;;4.97;;
42802;SDS011;28447;48.682;9.022;2022-08-01T04:47:15;7.87;;;5.30;;
42802;SDS011;28447;48.682;9.022;2022-08-01T04:49:42;7.97;;;5.20;;
42802;SDS011;28447;48.682;9.022;2022-08-01T04:52:10;7.93;;;5.10;;
42802;SDS011;28447;48.682;9.022;2022-08-01T04:54:36;6.20;;;4.63;;
42802;SDS011;28447;48.682;9.022;2022-08-01T04:57:02;7.50;;;5.23;;
42802;SDS011;28447;48.682;9.022;2022-08-01T04:59:31;6.33;;;5.00;;
42802;SDS011;28447;48.682;9.022;2022-08-01T05:02:05;6.47;;;5.20;;
42802;SDS011;28447;48.682;9.022;2022-08-01T05:04:35;10.03;;;5.67;;
42802;SDS011;28447;48.682;9.022;2022-08-01T05:07:02;6.03;;;4.80;;
42802;SDS011;28447;48.682;9.022;2022-08-01T05:09:29;6.30;;;5.17;;
42802;SDS011;28447;48.682;9.022;2022-08-01T05:11:55;5.13;;;4.40;;
42802;SDS011;28447;48.682;9.022;2022-08-01T05:14:23;6.57;;;4.83;;
42802;SDS011;28447;48.682;9.022;2022-08-01T05:16:52;7.50;;;4.90;;
42802;SDS011;28447;48.682;9.022;2022-08-01T05:19:18;9.50;;;4.77;;
42802;SDS011;28447;48.682;9.022;2022-08-01T05:21:44;9.77;;;4.97;;
42802;SDS011;28447;48.682;9.022;2022-08-01T05:24:10;5.90;;;5.13;;
42802;SDS011;28447;48.682;9.022;2022-08-01T05:26:37;6.70;;;5.60;;
42802;SDS011;28447;48.682;9.022;2022-08-01T05:29:03;7.43;;;4.90;;
42802;SDS011;28447;48.682;9.022;2022-08-01T05:31:29;6.80;;;4.30;;
42802;SDS011;28447;48.682;9.022;2022-08-01T05:33:55;5.00;;;4.40;;
42802;SDS011;28447;48.682;9.022;2022-08-01T05:36:20;5.57;;;4.60;;
42802;SDS011;28447;48.682;9.022;2022-08-01T05:38:46;6.70;;;4.87;;
42802;SDS011;28447;48.682;9.022;2022-08-01T05:41:11;6.13;;;4.60;;
42802;SDS011;28447;48.682;9.022;2022-08-01T05:43:37;6.70;;;4.53;;
42802;SDS011;28447;48.682;9.022;2022-08-01T05:46:03;4.77;;;4.30;;
42802;SDS011;28447;48.682;9.022;2022-08-01T05:48:28;5.80;;;4.50;;
42802;SDS011;28447;48.682;9.022;2022-08-01T05:50:55;7.03;;;3.97;;
42802;SDS011;28447;48.682;9.022;2022-08-01T05:53:20;5.60;;;4.00;;
42802;SDS011;28447;48.682;9.022;2022-08-01T05:55:47;5.93;;;3.97;;
42802;SDS011;28447;48.682;9.022;2022-08-01T05:58:12;4.60;;;3.80;;
42802;SDS011;28447;48.682;9.022;2022-08-01T06:00:39;5.50;;;4.03;;
42802;SDS011;28447;48.682;9.022;2022-08-01T06:03:05;5.17;;;3.20;;
42802;SDS011;28447;48.682;9.022;2022-08-01T06:05:31;5.17;;;3.77;;
42802;SDS011;28447;48.682;9.022;2022-08-01T06:07:56;4.73;;;3.60;;
42802;SDS011;28447;48.682;9.022;2022-08-01T06:10:23;5.80;;;4.03;;
42802;SDS011;28447;48.682;9.022;2022-08-01T06:12:48;5.80;;;3.40;;
42802;SDS011;28447;48.682;9.022;2022-08-01T06:15:14;3.93;;;3.40;;
42802;SDS011;28447;48.682;9.022;2022-08-01T06:17:40;5.47;;;3.60;;
42802;SDS011;28447;48.682;9.022;2022-08-01T06:20:06;4.93;;;3.20;;
42802;SDS011;28447;48.682;9.022;2022-08-01T06:22:32;5.63;;;3.47;;
42802;SDS011;28447;48.682;9.022;2022-08-01T06:24:58;3.60;;;3.30;;
42802;SDS011;28447;48.682;9.022;2022-08-01T06:27:24;4.80;;;3.60;;
42802;SDS011;28447;48.682;9.022;2022-08-01T06:29:51;4.80;;;3.93;;
42802;SDS011;28447;48.682;9.022;2022-08-01T06:32:18;4.30;;;3.47;;
42802;SDS011;28447;48.682;9.022;2022-08-01T06:34:44;3.33;;;3.03;;
42802;SDS011;28447;48.682;9.022;2022-08-01T06:37:10;9.60;;;3.37;;
42802;SDS011;28447;48.682;9.022;2022-08-01T06:39:38;5.80;;;3.20;;
42802;SDS011;28447;48.682;9.022;2022-08-01T06:42:04;3.50;;;3.20;;
42802;SDS011;28447;48.682;9.022;2022-08-01T06:44:29;3.33;;;3.03;;
42802;SDS011;28447;48.682;9.022;2022-08-01T06:46:55;4.00;;;3.60;;
42802;SDS011;28447;48.682;9.022;2022-08-01T06:49:23;3.20;;;2.90;;
42802;SDS011;28447;48.682;9.022;2022-08-01T06:51:49;5.13;;;3.70;;
42802;SDS011;28447;48.682;9.022;2022-08-01T06:54:14;2.70;;;2.50;;
42802;SDS011;28447;48.682;9.022;2022-08-01T06:56:41;3.50;;;2.93;;
42802;SDS011;28447;48.682;9.022;2022-08-01T06:59:07;2.93;;;2.63;;
42802;SDS011;28447;48.682;9.022;2022-08-01T07:01:32;3.40;;;2.80;;
42802;SDS011;28447;48.682;9.022;2022-08-01T07:03:58;3.43;;;2.50;;
42802;SDS011;28447;48.682;9.022;2022-08-01T07:06:24;3.60;;;3.30;;
42802;SDS011;28447;48.682;9.022;2022-08-01T07:08:51;8.03;;;2.63;;
42802;SDS011;28447;48.682;9.022;2022-08-01T07:11:17;3.10;;;2.80;;
42802;SDS011;28447;48.682;9.022;2022-08-01T07:13:44;6.53;;;2.70;;
42802;SDS011;28447;48.682;9.022;2022-08-01T07:16:10;6.50;;;2.70;;
42802;SDS011;28447;48.682;9.022;2022-08-01T07:18:37;3.37;;;2.70;;
42802;SDS011;28447;48.682;9.022;2022-08-01T07:21:02;2.80;;;2.50;;
42802;SDS011;28447;48.682;9.022;2022-08-01T07:23:28;3.27;;;2.50;;
42802;SDS011;28447;48.682;9.022;2022-08-01T07:25:54;5.07;;;2.50;;
42802;SDS011;28447;48.682;9.022;2022-08-01T07:28:20;3.20;;;2.80;;
42802;SDS011;28447;48.682;9.022;2022-08-01T07:30:45;3.00;;;2.70;;
42802;SDS011;28447;48.682;9.022;2022-08-01T07:33:11;3.17;;;2.80;;
42802;SDS011;28447;48.682;9.022;2022-08-01T07:35:36;9.90;;;2.90;;
42802;SDS011;28447;48.682;9.022;2022-08-01T07:38:06;3.70;;;3.03;;
42802;SDS011;28447;48.682;9.022;2022-08-01T07:40:32;3.50;;;2.80;;
42802;SDS011;28447;48.682;9.022;2022-08-01T07:42:58;9.23;;;2.70;;
42802;SDS011;28447;48.682;9.022;2022-08-01T07:45:23;3.90;;;3.03;;
42802;SDS011;28447;48.682;9.022;2022-08-01T07:47:49;5.50;;;3.03;;
42802;SDS011;28447;48.682;9.022;2022-08-01T07:50:15;3.53;;;3.23;;
42802;SDS011;28447;48.682;9.022;2022-08-01T07:52:41;2.97;;;2.70;;
42802;SDS011;28447;48.682;9.022;2022-08-01T07:55:08;3.43;;;2.83;;
42802;SDS011;28447;48.682;9.022;2022-08-01T07:57:35;2.93;;;2.67;;
42802;SDS011;28447;48.682;9.022;2022-08-01T08:00:01;5.30;;;3.07;;
42802;SDS011;28447;48.682;9.022;2022-08-01T08:02:28;3.90;;;3.50;;
42802;SDS011;28447;48.682;9.022;2022-08-01T08:04:54;4.50;;;3.40;;
42802;SDS011;28447;48.682;9.022;2022-08-01T08:07:19;3.93;;;3.30;;
42802;SDS011;28447;48.682;9.022;2022-08-01T08:09:45;4.00;;;3.63;;
42802;SDS011;28447;48.682;9.022;2022-08-01T08:12:11;4.47;;;3.77;;
42802;SDS011;28447;48.682;9.022;2022-08-01T08:14:37;3.40;;;3.10;;
42802;SDS011;28447;48.682;9.022;2022-08-01T08:17:03;4.40;;;4.00;;
42802;SDS011;28447;48.682;9.022;2022-08-01T08:19:30;4.27;;;3.87;;
42802;SDS011;28447;48.682;9.022;2022-08-01T08:21:58;4.30;;;3.30;;
42802;SDS011;28447;48.682;9.022;2022-08-01T08:24:26;6.17;;;3.47;;
42802;SDS011;28447;48.682;9.022;2022-08-01T08:26:54;7.83;;;4.00;;
42802;SDS011;28447;48.682;9.022;2022-08-01T08:29:24;4.50;;;3.90;;
42802;SDS011;28447;48.682;9.022;2022-08-01T08:31:52;3.80;;;3.40;;
42802;SDS011;28447;48.682;9.022;2022-08-01T08:34:18;4.33;;;3.80;;
42802;SDS011;28447;48.682;9.022;2022-08-01T08:36:44;6.50;;;4.67;;
42802;SDS011;28447;48.682;9.022;2022-08-01T08:39:10;5.07;;;3.60;;
42802;SDS011;28447;48.682;9.022;2022-08-01T08:41:36;4.40;;;4.00;;
42802;SDS011;28447;48.682;9.022;2022-08-01T08:44:06;6.87;;;4.90;;
42802;SDS011;28447;48.682;9.022;2022-08-01T08:46:33;6.80;;;4.50;;
42802;SDS011;28447;48.682;9.022;2022-08-01T08:49:03;6.33;;;4.40;;
42802;SDS011;28447;48.682;9.022;2022-08-01T08:51:30;5.13;;;3.57;;
42802;SDS011;28447;48.682;9.022;2022-08-01T08:53:58;4.97;;;4.03;;
42802;SDS011;28447;48.682;9.022;2022-08-01T08:56:25;4.70;;;4.17;;
42802;SDS011;28447;48.682;9.022;2022-08-01T08:58:55;5.33;;;3.93;;
42802;SDS011;28447;48.682;9.022;2022-08-01T09:01:21;4.63;;;4.13;;
42802;SDS011;28447;48.682;9.022;2022-08-01T09:03:47;4.13;;;3.73;;
42802;SDS011;28447;48.682;9.022;2022-08-01T09:06:13;5.57;;;4.30;;
42802;SDS011;28447;48.682;9.022;2022-08-01T09:08:39;4.77;;;4.03;;
42802;SDS011;28447;48.682;9.022;2022-08-01T09:11:05;4.37;;;3.90;;
42802;SDS011;28447;48.682;9.022;2022-08-01T09:13:31;5.80;;;3.63;;
42802;SDS011;28447;48.682;9.022;2022-08-01T09:15:57;4.40;;;3.83;;
42802;SDS011;28447;48.682;9.022;2022-08-01T09:18:27;6.90;;;3.87;;
42802;SDS011;28447;48.682;9.022;2022-08-01T09:26:11;5.13;;;4.63;;
42802;SDS011;28447;48.682;9.022;2022-08-01T09:28:38;5.00;;;3.90;;
42802;SDS011;28447;48.682;9.022;2022-08-01T09:31:05;4.47;;;4.07;;
42802;SDS011;28447;48.682;9.022;2022-08-01T09:33:48;8.90;;;4.27;;
42802;SDS011;28447;48.682;9.022;2022-08-01T09:36:19;7.67;;;4.47;;
42802;SDS011;28447;48.682;9.022;2022-08-01T09:38:46;5.37;;;4.00;;
42802;SDS011;28447;48.682;9.022;2022-08-01T09:41:12;5.10;;;4.50;;
42802;SDS011;28447;48.682;9.022;2022-08-01T09:43:38;5.33;;;4.57;;
42802;SDS011;28447;48.682;9.022;2022-08-01T09:46:05;4.50;;;4.10;;
42802;SDS011;28447;48.682;9.022;2022-08-01T09:48:37;4.27;;;3.87;;
42802;SDS011;28447;48.682;9.022;2022-08-01T09:51:04;4.90;;;4.40;;
42802;SDS011;28447;48.682;9.022;2022-08-01T09:53:44;5.10;;;4.60;;
42802;SDS011;28447;48.682;9.022;2022-08-01T09:56:13;7.70;;;6.40;;
42802;SDS011;28447;48.682;9.022;2022-08-01T09:58:55;8.37;;;7.00;;
42802;SDS011;28447;48.682;9.022;2022-08-01T10:01:23;7.60;;;6.40;;
42802;SDS011;28447;48.682;9.022;2022-08-01T10:04:05;7.80;;;6.90;;
42802;SDS011;28447;48.682;9.022;2022-08-01T10:06:39;8.20;;;6.67;;
42802;SDS011;28447;48.682;9.022;2022-08-01T10:09:07;7.40;;;6.40;;
42802;SDS011;28447;48.682;9.022;2022-08-01T10:11:34;6.13;;;5.53;;
42802;SDS011;28447;48.682;9.022;2022-08-01T10:14:04;6.07;;;5.47;;
42802;SDS011;28447;48.682;9.022;2022-08-01T10:16:32;9.88;;;5.53;;
42802;SDS011;28447;48.682;9.022;2022-08-01T10:19:01;5.72;;;5.07;;
42802;SDS011;28447;48.682;9.022;2022-08-01T10:21:30;5.32;;;4.50;;
42802;SDS011;28447;48.682;9.022;2022-08-01T10:23:58;6.10;;;4.50;;
42802;SDS011;28447;48.682;9.022;2022-08-01T10:26:25;5.30;;;4.70;;
42802;SDS011;28447;48.682;9.022;2022-08-01T10:28:51;4.63;;;4.23;;
42802;SDS011;28447;48.682;9.022;2022-08-01T10:31:18;7.05;;;5.20;;
42802;SDS011;28447;48.682;9.022;2022-08-01T10:33:44;5.15;;;4.65;;
42802;SDS011;28447;48.682;9.022;2022-08-01T10:36:10;6.80;;;5.00;;
42802;SDS011;28447;48.682;9.022;2022-08-01T10:38:37;4.85;;;4.45;;
42802;SDS011;28447;48.682;9.022;2022-08-01T10:41:04;5.45;;;4.95;;
42802;SDS011;28447;48.682;9.022;2022-08-01T10:43:33;6.53;;;4.97;;
42802;SDS011;28447;48.682;9.022;2022-08-01T10:45:59;4.63;;;4.22;;
42802;SDS011;28447;48.682;9.022;2022-08-01T10:48:29;4.40;;;4.00;;
42802;SDS011;28447;48.682;9.022;2022-08-01T10:51:16;4.97;;;4.47;;
42802;SDS011;28447;48.682;9.022;2022-08-01T10:53:50;4.32;;;3.92;;
42802;SDS011;28447;48.682;9.022;2022-08-01T10:56:17;4.88;;;4.40;;
42802;SDS011;28447;48.682;9.022;2022-08-01T10:58:43;7.63;;;4.40;;
42802;SDS011;28447;48.682;9.022;2022-08-01T11:01:22;5.25;;;4.75;;
42802;SDS011;28447;48.682;9.022;2022-08-01T11:03:56;8.60;;;4.47;;
42802;SDS011;28447;48.682;9.022;2022-08-01T11:06:43;4.20;;;3.77;;
42802;SDS011;28447;48.682;9.022;2022-08-01T11:09:31;5.97;;;3.87;;
42802;SDS011;28447;48.682;9.022;2022-08-01T11:17:49;6.47;;;4.10;;
42802;SDS011;28447;48.682;9.022;2022-08-01T11:30:48;6.03;;;3.83;;
42802;SDS011;28447;48.682;9.022;2022-08-01T11:33:17;4.15;;;3.63;;
42802;SDS011;28447;48.682;9.022;2022-08-01T11:38:35;6.15;;;3.90;;
42802;SDS011;28447;48.682;9.022;2022-08-01T11:41:22;5.03;;;3.33;;
42802;SDS011;28447;48.682;9.022;2022-08-01T11:44:08;4.10;;;3.70;;
42802;SDS011;28447;48.682;9.022;2022-08-01T11:54:37;3.83;;;3.50;;
42802;SDS011;28447;48.682;9.022;2022-08-01T11:57:11;7.43;;;3.73;;
42802;SDS011;28447;48.682;9.022;2022-08-01T11:59:44;4.37;;;3.70;;
42802;SDS011;28447;48.682;9.022;2022-08-01T12:02:24;4.50;;;3.73;;
42802;SDS011;28447;48.682;9.022;2022-08-01T12:05:02;4.50;;;3.53;;
42802;SDS011;28447;48.682;9.022;2022-08-01T12:07:37;5.80;;;3.47;;
42802;SDS011;28447;48.682;9.022;2022-08-01T12:10:07;7.07;;;3.67;;
42802;SDS011;28447;48.682;9.022;2022-08-01T12:12:35;4.33;;;3.80;;
42802;SDS011;28447;48.682;9.022;2022-08-01T12:15:03;4.53;;;4.00;;
42802;SDS011;28447;48.682;9.022;2022-08-01T12:18:13;4.85;;;3.63;;
42802;SDS011;28447;48.682;9.022;2022-08-01T12:20:25;3.60;;;3.00;;
42802;SDS011;28447;48.682;9.022;2022-08-01T12:22:55;3.33;;;3.03;;
42802;SDS011;28447;48.682;9.022;2022-08-01T12:25:22;3.80;;;3.40;;
42802;SDS011;28447;48.682;9.022;2022-08-01T12:27:48;3.35;;;3.05;;
42802;SDS011;28447;48.682;9.022;2022-08-01T12:30:15;3.22;;;2.92;;
42802;SDS011;28447;48.682;9.022;2022-08-01T12:32:46;4.00;;;3.60;;
42802;SDS011;28447;48.682;9.022;2022-08-01T12:35:14;4.93;;;3.28;;
42802;SDS011;28447;48.682;9.022;2022-08-01T12:37:45;3.55;;;3.25;;
42802;SDS011;28447;48.682;9.022;2022-08-01T12:42:53;3.65;;;3.35;;
42802;SDS011;28447;48.682;9.022;2022-08-01T12:45:21;4.10;;;3.70;;
42802;SDS011;28447;48.682;9.022;2022-08-01T12:47:50;3.40;;;3.10;;
42802;SDS011;28447;48.682;9.022;2022-08-01T12:50:21;5.13;;;3.17;;
42802;SDS011;28447;48.682;9.022;2022-08-01T12:52:49;3.35;;;2.58;;
42802;SDS011;28447;48.682;9.022;2022-08-01T12:55:16;3.58;;;3.13;;
42802;SDS011;28447;48.682;9.022;2022-08-01T12:57:44;3.42;;;2.92;;
42802;SDS011;28447;48.682;9.022;2022-08-01T13:02:41;3.25;;;2.92;;
42802;SDS011;28447;48.682;9.022;2022-08-01T13:05:07;4.05;;;2.97;;
42802;SDS011;28447;48.682;9.022;2022-08-01T13:07:44;3.38;;;3.08;;
42802;SDS011;28447;48.682;9.022;2022-08-01T13:10:12;7.80;;;3.25;;
42802;SDS011;28447;48.682;9.022;2022-08-01T13:12:40;3.47;;;3.00;;
42802;SDS011;28447;48.682;9.022;2022-08-01T13:15:19;3.92;;;3.63;;
42802;SDS011;28447;48.682;9.022;2022-08-01T13:17:59;3.22;;;2.92;;
42802;SDS011;28447;48.682;9.022;2022-08-01T13:20:45;3.88;;;3.47;;
42802;SDS011;28447;48.682;9.022;2022-08-01T13:23:16;3.70;;;3.40;;
42802;SDS011;28447;48.682;9.022;2022-08-01T13:25:55;3.25;;;2.95;;
42802;SDS011;28447;48.682;9.022;2022-08-01T13:28:27;4.03;;;2.80;;
42802;SDS011;28447;48.682;9.022;2022-08-01T13:30:57;5.30;;;3.22;;
42802;SDS011;28447;48.682;9.022;2022-08-01T13:33:23;4.82;;;3.38;;
42802;SDS011;28447;48.682;9.022;2022-08-01T13:35:51;6.05;;;3.42;;
42802;SDS011;28447;48.682;9.022;2022-08-01T13:38:18;3.65;;;3.30;;
42802;SDS011;28447;48.682;9.022;2022-08-01T13:40:43;3.33;;;3.03;;
42802;SDS011;28447;48.682;9.022;2022-08-01T13:43:09;4.43;;;3.40;;
42802;SDS011;28447;48.682;9.022;2022-08-01T13:45:36;6.82;;;3.38;;
42802;SDS011;28447;48.682;9.022;2022-08-01T13:48:03;5.63;;;2.85;;
42802;SDS011;28447;48.682;9.022;2022-08-01T13:50:29;3.22;;;2.88;;
42802;SDS011;28447;48.682;9.022;2022-08-01T13:52:55;3.67;;;3.28;;
42802;SDS011;28447;48.682;9.022;2022-08-01T13:55:21;4.95;;;3.10;;
42802;SDS011;28447;48.682;9.022;2022-08-01T13:57:46;7.68;;;3.60;;
42802;SDS011;28447;48.682;9.022;2022-08-01T14:00:12;4.55;;;3.65;;
42802;SDS011;28447;48.682;9.022;2022-08-01T14:02:38;4.57;;;3.30;;
42802;SDS011;28447;48.682;9.022;2022-08-01T14:05:05;3.63;;;2.80;;
42802;SDS011;28447;48.682;9.022;2022-08-01T14:07:31;5.03;;;3.20;;
42802;SDS011;28447;48.682;9.022;2022-08-01T14:09:56;4.55;;;3.40;;
42802;SDS011;28447;48.682;9.022;2022-08-01T14:12:22;4.72;;;3.60;;
42802;SDS011;28447;48.682;9.022;2022-08-01T14:14:48;4.35;;;2.92;;
42802;SDS011;28447;48.682;9.022;2022-08-01T14:17:14;4.50;;;3.10;;
42802;SDS011;28447;48.682;9.022;2022-08-01T14:19:39;7.20;;;3.47;;
42802;SDS011;28447;48.682;9.022;2022-08-01T14:22:05;3.72;;;3.38;;
42802;SDS011;28447;48.682;9.022;2022-08-01T14:24:31;4.80;;;3.47;;
42802;SDS011;28447;48.682;9.022;2022-08-01T14:26:56;4.30;;;3.28;;
42802;SDS011;28447;48.682;9.022;2022-08-01T14:29:22;5.20;;;3.65;;
42802;SDS011;28447;48.682;9.022;2022-08-01T14:31:48;5.22;;;3.33;;
42802;SDS011;28447;48.682;9.022;2022-08-01T14:34:14;3.65;;;3.28;;
42802;SDS011;28447;48.682;9.022;2022-08-01T14:36:40;3.20;;;2.90;;
42802;SDS011;28447;48.682;9.022;2022-08-01T14:39:06;3.17;;;2.70;;
42802;SDS011;28447;48.682;9.022;2022-08-01T14:41:32;3.50;;;3.20;;
42802;SDS011;28447;48.682;9.022;2022-08-01T14:43:58;4.22;;;3.08;;
42802;SDS011;28447;48.682;9.022;2022-08-01T14:46:24;3.70;;;3.40;;
42802;SDS011;28447;48.682;9.022;2022-08-01T14:48:50;3.78;;;3.42;;
42802;SDS011;28447;48.682;9.022;2022-08-01T14:51:16;4.55;;;3.40;;
42802;SDS011;28447;48.682;9.022;2022-08-01T14:53:42;3.63;;;2.88;;
42802;SDS011;28447;48.682;9.022;2022-08-01T14:56:08;3.60;;;3.30;;
42802;SDS011;28447;48.682;9.022;2022-08-01T14:58:33;5.90;;;3.30;;
42802;SDS011;28447;48.682;9.022;2022-08-01T15:00:59;3.65;;;3.03;;
42802;SDS011;28447;48.682;9.022;2022-08-01T15:03:25;5.10;;;3.08;;
42802;SDS011;28447;48.682;9.022;2022-08-01T15:05:51;3.05;;;2.75;;
42802;SDS011;28447;48.682;9.022;2022-08-01T15:08:17;4.20;;;3.83;;
42802;SDS011;28447;48.682;9.022;2022-08-01T15:10:43;3.47;;;3.08;;
42802;SDS011;28447;48.682;9.022;2022-08-01T15:13:08;3.70;;;3.22;;
42802;SDS011;28447;48.682;9.022;2022-08-01T15:15:34;3.70;;;3.28;;
42802;SDS011;28447;48.682;9.022;2022-08-01T15:18:00;4.00;;;3.25;;
42802;SDS011;28447;48.682;9.022;2022-08-01T15:20:25;4.05;;;3.30;;
42802;SDS011;28447;48.682;9.022;2022-08-01T15:22:52;4.00;;;3.10;;
42802;SDS011;28447;48.682;9.022;2022-08-01T15:25:18;4.10;;;3.40;;
42802;SDS011;28447;48.682;9.022;2022-08-01T15:27:44;5.88;;;3.17;;
42802;SDS011;28447;48.682;9.022;2022-08-01T15:30:10;3.88;;;3.17;;
42802;SDS011;28447;48.682;9.022;2022-08-01T15:32:37;3.45;;;3.15;;
42802;SDS011;28447;48.682;9.022;2022-08-01T15:35:03;4.43;;;3.08;;
42802;SDS011;28447;48.682;9.022;2022-08-01T15:37:29;4.13;;;3.28;;
42802;SDS011;28447;48.682;9.022;2022-08-01T15:39:55;3.75;;;3.00;;
42802;SDS011;28447;48.682;9.022;2022-08-01T15:42:21;3.35;;;3.05;;